Portada
METAR-TAF:

METAR-TAF

Aeroports :

El Caire, Egipte

Aeroport Internacional del Caire

latitud: 30-08N, longitud: 031-24E, altitud: 64 m

Observació

L'informe es va fer fa 10 minuts, a les 20:00 UTC
Vent 9 kt del Nord
Temperatura 26°C
Humitat 42%
Pressió 1012 hPa
Visibilitat: 6000 m

METAR: HECA 202000Z 35009KT 6000 NSC 26/12 Q1012 NOSIG

Hora: 22:10 (20:10 UTC)

Pronòstic

L'informe es va fer fa 3 hores i 10 minuts, a les 17:00 UTC
Pronòstic vàlid del 20 a les 18 UTC al 21 a les 24 UTC
Vent 8 kt del Nord/Nord-Oest
Visibilitat: 6000 m
Temporalment
l' 20 a les 18 UTC al 20 a les 22 UTC

TAF: HECA 201700Z 2018/2124 34008KT 6000 NSC TEMPO 2018/2022 4000HZ

Observacions i pronòstics meteorològics de més de 4000 aeroports (METAR i TAF).

Les estacions disponibles són els punts grocs i vermells al mapa.

Posi el ratolí al punt desitjat per veure el nom de l'estació.

Feu clic per veure les observacions i els pronòstics meteorològics.

Per canviar el mapa: feu clic els botons verds amb una creu de color negre per apropar; al botó verd amb un guió per allunyar la imatge; o en les fletxes verdes per a mapes adjacents.


METAR-TAF: